createdAt,value
2022-09-28T00:01:17.172Z,100.00
2022-09-28T00:03:45.055Z,100.00
2022-09-28T00:06:13.649Z,100.00
2022-09-28T00:08:40.852Z,100.00
2022-09-28T00:11:12.267Z,100.00
2022-09-28T00:13:40.360Z,100.00
2022-09-28T00:16:16.390Z,100.00
2022-09-28T00:18:43.883Z,100.00
2022-09-28T00:21:13.289Z,100.00
2022-09-28T00:23:59.809Z,100.00
2022-09-28T00:26:31.658Z,100.00
2022-09-28T00:29:00.385Z,100.00
2022-09-28T00:31:32.843Z,100.00
2022-09-28T00:34:01.338Z,100.00
2022-09-28T00:36:30.736Z,100.00
2022-09-28T00:38:58.373Z,100.00
2022-09-28T00:41:27.672Z,100.00
2022-09-28T00:44:15.096Z,100.00
2022-09-28T00:46:42.669Z,100.00
2022-09-28T00:49:15.858Z,100.00
2022-09-28T00:51:44.735Z,100.00
2022-09-28T00:54:12.889Z,100.00
2022-09-28T00:56:42.489Z,100.00
2022-09-28T00:59:09.515Z,100.00
2022-09-28T01:01:36.833Z,100.00
2022-09-28T01:04:04.954Z,100.00
2022-09-28T01:06:35.887Z,100.00
2022-09-28T01:09:06.834Z,100.00
2022-09-28T01:11:36.788Z,100.00
2022-09-28T01:14:03.811Z,100.00
2022-09-28T01:16:45.707Z,100.00
2022-09-28T01:19:51.343Z,100.00
2022-09-28T01:22:40.120Z,100.00
2022-09-28T01:25:42.626Z,100.00
2022-09-28T01:28:16.369Z,100.00
2022-09-28T01:31:03.276Z,100.00
2022-09-28T01:33:55.434Z,100.00
2022-09-28T01:36:35.086Z,100.00
2022-09-28T01:39:09.999Z,100.00
2022-09-28T01:41:40.474Z,100.00
2022-09-28T01:44:13.983Z,100.00
2022-09-28T01:46:45.344Z,100.00
2022-09-28T01:49:25.759Z,100.00
2022-09-28T01:52:02.673Z,100.00
2022-09-28T01:54:36.299Z,100.00
2022-09-28T01:57:10.834Z,100.00
2022-09-28T01:59:43.341Z,100.00
2022-09-28T02:02:14.989Z,100.00
2022-09-28T02:05:07.860Z,100.00
2022-09-28T02:07:39.955Z,100.00
2022-09-28T02:10:13.269Z,100.00
2022-09-28T02:12:54.698Z,100.00
2022-09-28T02:15:34.677Z,100.00
2022-09-28T02:18:01.421Z,100.00
2022-09-28T02:20:30.712Z,100.00
2022-09-28T02:22:59.618Z,100.00
2022-09-28T02:25:41.420Z,100.00
2022-09-28T02:28:16.450Z,100.00
2022-09-28T02:30:44.555Z,100.00
2022-09-28T02:33:18.295Z,100.00
2022-09-28T02:35:45.218Z,100.00
2022-09-28T02:38:13.078Z,100.00
2022-09-28T02:40:43.895Z,100.00
2022-09-28T02:43:10.416Z,100.00
2022-09-28T02:45:46.694Z,100.00
2022-09-28T02:48:41.333Z,100.00
2022-09-28T02:51:33.006Z,100.00
2022-09-28T02:54:16.641Z,100.00
2022-09-28T02:57:33.324Z,100.00
2022-09-28T03:00:02.730Z,100.00
2022-09-28T03:02:38.891Z,100.00
2022-09-28T03:05:22.799Z,100.00
2022-09-28T03:08:06.977Z,100.00
2022-09-28T03:10:46.402Z,100.00
2022-09-28T03:13:14.801Z,100.00
2022-09-28T03:15:48.546Z,100.00
2022-09-28T03:18:15.688Z,100.00
2022-09-28T03:20:42.230Z,100.00
2022-09-28T03:23:25.306Z,100.00
2022-09-28T03:25:52.252Z,100.00
2022-09-28T03:28:18.879Z,100.00
2022-09-28T03:30:45.419Z,100.00
2022-09-28T03:33:12.023Z,100.00
2022-09-28T03:35:38.607Z,100.00
2022-09-28T03:38:05.144Z,100.00
2022-09-28T03:40:32.794Z,100.00
2022-09-28T03:43:01.165Z,100.00
2022-09-28T03:45:27.810Z,100.00
2022-09-28T03:47:54.453Z,100.00
2022-09-28T03:50:21.018Z,100.00
2022-09-28T03:52:47.530Z,100.00
2022-09-28T03:55:14.271Z,100.00
2022-09-28T03:57:40.897Z,100.00
2022-09-28T04:00:08.192Z,100.00
2022-09-28T04:02:35.110Z,100.00
2022-09-28T04:05:02.386Z,100.00
2022-09-28T04:07:31.093Z,100.00
2022-09-28T04:09:58.206Z,100.00
2022-09-28T04:12:25.021Z,100.00
2022-09-28T04:14:51.753Z,100.00
2022-09-28T04:17:18.303Z,100.00
2022-09-28T04:19:44.839Z,100.00
2022-09-28T04:22:11.822Z,100.00
2022-09-28T04:24:38.409Z,100.00
2022-09-28T04:27:24.019Z,100.00
2022-09-28T04:29:50.570Z,100.00
2022-09-28T04:32:17.284Z,100.00
2022-09-28T04:34:44.476Z,100.00
2022-09-28T04:37:11.138Z,100.00
2022-09-28T04:39:37.702Z,100.00
2022-09-28T04:42:05.596Z,100.00
2022-09-28T04:44:32.201Z,100.00
2022-09-28T04:47:02.879Z,100.00
2022-09-28T04:49:31.579Z,100.00
2022-09-28T04:51:58.172Z,100.00
2022-09-28T04:54:24.738Z,100.00
2022-09-28T04:56:52.562Z,100.00
2022-09-28T04:59:19.062Z,100.00
2022-09-28T05:01:45.719Z,100.00
2022-09-28T05:04:12.229Z,100.00
2022-09-28T05:06:38.805Z,100.00
2022-09-28T05:09:05.558Z,100.00
2022-09-28T05:11:32.092Z,100.00
2022-09-28T05:13:58.745Z,100.00
2022-09-28T05:16:26.291Z,100.00
2022-09-28T05:18:56.693Z,100.00
2022-09-28T05:21:25.436Z,100.00
2022-09-28T05:23:56.039Z,100.00
2022-09-28T05:26:23.245Z,100.00
2022-09-28T05:28:49.927Z,100.00
2022-09-28T05:31:17.307Z,100.00
2022-09-28T05:33:43.845Z,100.00
2022-09-28T05:36:11.112Z,100.00
2022-09-28T05:38:37.753Z,100.00
2022-09-28T05:41:06.710Z,100.00
2022-09-28T05:43:33.711Z,100.00
2022-09-28T05:46:00.686Z,100.00
2022-09-28T05:48:28.355Z,100.00
2022-09-28T05:50:55.261Z,100.00
2022-09-28T05:53:21.889Z,100.00
2022-09-28T05:55:48.720Z,100.00
2022-09-28T05:58:16.074Z,100.00
2022-09-28T06:00:43.118Z,100.00
2022-09-28T06:03:14.438Z,100.00
2022-09-28T06:05:41.448Z,100.00
2022-09-28T06:08:10.673Z,100.00
2022-09-28T06:10:37.343Z,100.00
2022-09-28T06:13:03.874Z,100.00
2022-09-28T06:15:32.496Z,100.00
2022-09-28T06:18:05.154Z,100.00
2022-09-28T06:20:34.665Z,100.00
2022-09-28T06:23:02.498Z,100.00
2022-09-28T06:25:29.415Z,100.00
2022-09-28T06:28:03.997Z,100.00
2022-09-28T06:30:32.697Z,100.00
2022-09-28T06:33:01.400Z,100.00
2022-09-28T06:35:30.875Z,100.00
2022-09-28T06:37:59.283Z,100.00
2022-09-28T06:40:26.889Z,100.00
2022-09-28T06:42:59.463Z,100.00
2022-09-28T06:45:27.782Z,100.00
2022-09-28T06:47:59.880Z,100.00
2022-09-28T06:50:29.179Z,100.00
2022-09-28T06:52:55.703Z,100.00
2022-09-28T06:55:22.385Z,100.00
2022-09-28T06:57:58.437Z,100.00
2022-09-28T07:00:26.425Z,100.00
2022-09-28T07:02:53.089Z,100.00
2022-09-28T07:05:26.830Z,100.00
2022-09-28T07:07:57.025Z,100.00
2022-09-28T07:10:25.404Z,100.00
2022-09-28T07:12:52.290Z,100.00
2022-09-28T07:15:19.294Z,100.00
2022-09-28T07:17:58.770Z,100.00
2022-09-28T07:20:27.412Z,100.00
2022-09-28T07:23:15.447Z,100.00
2022-09-28T07:25:48.029Z,100.00
2022-09-28T07:28:15.571Z,100.00
2022-09-28T07:30:43.332Z,100.00
2022-09-28T07:33:12.584Z,100.00
2022-09-28T07:35:39.414Z,100.00
2022-09-28T07:38:08.056Z,100.00
2022-09-28T07:40:55.011Z,100.00
2022-09-28T07:43:22.405Z,100.00
2022-09-28T07:45:50.570Z,100.00
2022-09-28T07:48:18.722Z,100.00
2022-09-28T07:50:51.788Z,100.00
2022-09-28T07:53:19.313Z,100.00
2022-09-28T07:56:02.255Z,100.00
2022-09-28T07:58:29.357Z,100.00
2022-09-28T08:00:55.881Z,100.00
2022-09-28T08:03:22.616Z,100.00
2022-09-28T08:05:49.831Z,100.00
2022-09-28T08:08:16.445Z,100.00
2022-09-28T08:10:46.957Z,100.00
2022-09-28T08:13:15.365Z,100.00
2022-09-28T08:15:42.669Z,100.00
2022-09-28T08:18:09.973Z,100.00
2022-09-28T08:20:55.410Z,100.00
2022-09-28T08:23:23.679Z,100.00
2022-09-28T08:25:55.198Z,100.00
2022-09-28T08:28:23.241Z,100.00
2022-09-28T08:30:50.683Z,100.00
2022-09-28T08:33:20.354Z,100.00
2022-09-28T08:35:47.290Z,100.00
2022-09-28T08:38:14.359Z,100.00
2022-09-28T08:40:54.906Z,100.00
2022-09-28T08:43:56.876Z,100.00
2022-09-28T08:46:29.558Z,100.00
2022-09-28T08:52:03.451Z,100.00
2022-09-28T08:54:50.450Z,100.00
2022-09-28T08:57:52.681Z,100.00
2022-09-28T09:00:52.393Z,100.00
2022-09-28T09:03:32.413Z,100.00
2022-09-28T09:06:18.450Z,100.00
2022-09-28T09:09:22.017Z,100.00
2022-09-28T09:12:00.800Z,100.00
2022-09-28T09:14:33.027Z,100.00
2022-09-28T09:17:14.093Z,100.00
2022-09-28T09:19:52.786Z,100.00
2022-09-28T09:22:28.184Z,98.39
2022-09-28T09:25:18.257Z,99.53
2022-09-28T09:28:22.246Z,100.00
2022-09-28T09:31:11.673Z,100.00
2022-09-28T09:34:02.269Z,100.00
2022-09-28T09:36:46.463Z,100.00
2022-09-28T09:39:18.966Z,100.00
2022-09-28T09:42:26.728Z,99.83
2022-09-28T09:45:11.660Z,98.91
2022-09-28T09:47:44.425Z,96.48
2022-09-28T09:50:39.376Z,99.42
2022-09-28T09:53:40.801Z,98.03
2022-09-28T09:56:31.296Z,95.02
2022-09-28T09:59:04.549Z,97.20
2022-09-28T10:01:37.798Z,97.57
2022-09-28T10:04:11.971Z,97.65
2022-09-28T10:06:40.980Z,96.26
2022-09-28T10:09:20.168Z,92.42
2022-09-28T10:11:51.963Z,89.41
2022-09-28T10:14:21.504Z,94.81
2022-09-28T10:16:50.041Z,94.28
2022-09-28T10:19:25.866Z,93.37
2022-09-28T10:21:53.287Z,94.47
2022-09-28T10:24:35.740Z,93.29
2022-09-28T10:27:08.694Z,94.69
2022-09-28T10:29:44.475Z,93.68
2022-09-28T10:32:23.878Z,89.45
2022-09-28T10:34:55.091Z,85.82
2022-09-28T10:37:21.687Z,86.93
2022-09-28T10:39:56.078Z,92.34
2022-09-28T10:42:27.000Z,91.64
2022-09-28T10:45:15.462Z,91.07
2022-09-28T10:47:44.387Z,91.77
2022-09-28T10:50:23.894Z,89.17
2022-09-28T10:52:50.459Z,93.16
2022-09-28T10:55:33.601Z,89.19
2022-09-28T10:58:24.181Z,92.39
2022-09-28T11:00:52.773Z,89.01
2022-09-28T11:03:24.159Z,90.66
2022-09-28T11:06:23.210Z,87.36
2022-09-28T11:08:50.498Z,87.11
2022-09-28T11:11:20.086Z,84.71
2022-09-28T11:13:53.525Z,83.14
2022-09-28T11:17:10.189Z,84.27
2022-09-28T11:19:37.068Z,91.33
2022-09-28T11:22:26.159Z,92.07
2022-09-28T11:25:22.252Z,85.29
2022-09-28T11:27:51.783Z,88.26
2022-09-28T11:30:45.520Z,92.47
2022-09-28T11:33:15.068Z,90.91
2022-09-28T11:35:45.326Z,90.33
2022-09-28T11:38:51.434Z,91.99
2022-09-28T11:41:59.865Z,91.66
2022-09-28T11:44:35.261Z,87.62
2022-09-28T11:47:07.533Z,81.48
2022-09-28T11:49:41.878Z,87.77
2022-09-28T11:52:20.483Z,86.50
2022-09-28T11:55:01.221Z,88.80
2022-09-28T11:57:36.802Z,87.67
2022-09-28T12:00:18.258Z,86.24
2022-09-28T12:02:58.789Z,90.15
2022-09-28T12:05:33.919Z,79.52
2022-09-28T12:08:08.406Z,81.16
2022-09-28T12:10:45.363Z,83.57
2022-09-28T12:13:18.695Z,79.04
2022-09-28T12:16:23.489Z,79.66
2022-09-28T12:18:56.404Z,82.46
2022-09-28T12:21:44.654Z,82.34
2022-09-28T12:24:42.314Z,83.62
2022-09-28T12:27:23.130Z,79.74
2022-09-28T12:29:55.501Z,85.43
2022-09-28T12:32:39.260Z,85.04
2022-09-28T12:35:36.737Z,83.11
2022-09-28T12:38:35.719Z,85.91
2022-09-28T12:41:24.002Z,84.72
2022-09-28T12:44:34.377Z,78.76
2022-09-28T12:47:19.797Z,87.33
2022-09-28T12:50:37.631Z,74.23
2022-09-28T12:52:50.791Z,82.74
2022-09-28T12:55:32.234Z,86.39
2022-09-28T12:58:15.182Z,85.88
2022-09-28T13:01:06.484Z,84.53
2022-09-28T13:03:45.824Z,79.77
2022-09-28T13:06:40.819Z,78.98
2022-09-28T13:09:22.647Z,81.37
2022-09-28T13:12:24.442Z,73.20
2022-09-28T13:15:04.504Z,71.82
2022-09-28T13:17:38.150Z,77.48
2022-09-28T13:20:13.917Z,80.98
2022-09-28T13:22:51.418Z,80.44
2022-09-28T13:25:20.911Z,80.39
2022-09-28T13:27:59.256Z,77.25
2022-09-28T13:30:27.014Z,82.32
2022-09-28T13:32:57.590Z,87.54
2022-09-28T13:35:24.823Z,84.79
2022-09-28T13:38:16.463Z,85.91
2022-09-28T13:41:04.975Z,85.17
2022-09-28T13:43:58.371Z,84.96
2022-09-28T13:47:10.397Z,80.37
2022-09-28T13:49:51.080Z,76.37
2022-09-28T13:52:34.064Z,85.13
2022-09-28T13:55:24.972Z,79.52
2022-09-28T13:57:56.860Z,79.13
2022-09-28T14:00:29.490Z,79.07
2022-09-28T14:03:01.555Z,79.32
2022-09-28T14:05:47.355Z,83.56
2022-09-28T14:08:34.891Z,82.39
2022-09-28T14:11:49.830Z,84.20
2022-09-28T14:14:16.443Z,88.36
2022-09-28T14:16:43.882Z,84.54
2022-09-28T14:19:23.578Z,87.42
2022-09-28T14:22:09.978Z,79.38
2022-09-28T14:24:45.622Z,82.48
2022-09-28T14:27:36.805Z,86.16
2022-09-28T14:30:08.503Z,88.29
2022-09-28T14:32:37.086Z,84.74
2022-09-28T14:35:07.199Z,85.04
2022-09-28T14:37:58.976Z,84.87
2022-09-28T14:40:51.068Z,85.60
2022-09-28T14:43:34.295Z,85.77
2022-09-28T14:46:19.354Z,83.97
2022-09-28T14:48:52.719Z,86.27
2022-09-28T14:51:26.232Z,77.74
2022-09-28T14:54:00.304Z,87.11
2022-09-28T14:56:32.568Z,85.00
2022-09-28T14:59:00.447Z,83.22
2022-09-28T15:01:27.766Z,80.36
2022-09-28T15:03:59.096Z,75.91
2022-09-28T15:06:28.941Z,81.58
2022-09-28T15:08:55.658Z,77.88
2022-09-28T15:11:24.965Z,78.93
2022-09-28T15:14:04.569Z,82.13
2022-09-28T15:16:31.393Z,83.41
2022-09-28T15:19:23.780Z,79.64
2022-09-28T15:21:51.222Z,83.43
2022-09-28T15:24:34.744Z,80.75
2022-09-28T15:27:03.414Z,85.46
2022-09-28T15:29:33.466Z,83.89
2022-09-28T15:32:00.260Z,83.80
2022-09-28T15:34:56.798Z,84.25
2022-09-28T15:37:29.425Z,83.04
2022-09-28T15:39:59.922Z,83.64
2022-09-28T15:42:26.762Z,78.01
2022-09-28T15:45:13.763Z,75.38
2022-09-28T15:47:41.759Z,84.57
2022-09-28T15:50:22.821Z,83.61
2022-09-28T15:53:00.834Z,82.41
2022-09-28T15:55:32.060Z,82.71
2022-09-28T15:58:19.390Z,79.55
2022-09-28T16:00:48.252Z,80.31
2022-09-28T16:03:17.765Z,79.13
2022-09-28T16:05:59.618Z,82.34
2022-09-28T16:08:43.582Z,82.69
2022-09-28T16:11:27.884Z,83.74
2022-09-28T16:14:06.725Z,83.55
2022-09-28T16:16:41.199Z,79.20
2022-09-28T16:19:21.024Z,80.41
2022-09-28T16:21:50.377Z,80.88
2022-09-28T16:24:23.571Z,84.47
2022-09-28T16:27:01.042Z,85.26
2022-09-28T16:29:36.361Z,86.49
2022-09-28T16:32:34.045Z,85.88
2022-09-28T16:35:10.861Z,84.91
2022-09-28T16:37:40.884Z,86.54
2022-09-28T16:40:08.912Z,86.82
2022-09-28T16:42:36.750Z,87.41
2022-09-28T16:45:05.372Z,88.18
2022-09-28T16:47:34.184Z,89.64
2022-09-28T16:50:02.520Z,89.18
2022-09-28T16:52:47.466Z,89.15
2022-09-28T16:55:39.625Z,89.85
2022-09-28T16:58:04.757Z,90.57
2022-09-28T17:00:32.488Z,90.68
2022-09-28T17:02:59.707Z,90.72
2022-09-28T17:05:26.429Z,91.08
2022-09-28T17:08:01.274Z,91.32
2022-09-28T17:11:02.422Z,91.51
2022-09-28T17:13:37.446Z,91.74
2022-09-28T17:16:08.992Z,92.45
2022-09-28T17:18:37.883Z,92.67
2022-09-28T17:21:06.758Z,92.77
2022-09-28T17:23:33.442Z,92.78
2022-09-28T17:26:02.090Z,91.25
2022-09-28T17:28:36.577Z,91.30
2022-09-28T17:31:04.274Z,92.74
2022-09-28T17:33:31.083Z,92.73
2022-09-28T17:36:01.424Z,93.60
2022-09-28T17:38:28.574Z,92.42
2022-09-28T17:40:55.161Z,93.00
2022-09-28T17:43:22.389Z,93.53
2022-09-28T17:45:49.586Z,93.18
2022-09-28T17:48:23.092Z,93.42
2022-09-28T17:50:50.675Z,93.74
2022-09-28T17:53:17.670Z,94.11
2022-09-28T17:55:44.255Z,94.76
2022-09-28T17:58:15.707Z,95.18
2022-09-28T18:00:43.245Z,95.48
2022-09-28T18:03:17.267Z,97.08
2022-09-28T18:05:44.809Z,96.88
2022-09-28T18:08:14.229Z,98.96
2022-09-28T18:10:40.792Z,99.14
2022-09-28T18:13:07.751Z,99.33
2022-09-28T18:15:34.471Z,100.00
2022-09-28T18:18:01.254Z,100.00
2022-09-28T18:20:27.957Z,100.00
2022-09-28T18:22:54.513Z,100.00
2022-09-28T18:25:21.248Z,100.00
2022-09-28T18:27:47.806Z,100.00
2022-09-28T18:30:14.389Z,100.00
2022-09-28T18:32:41.319Z,100.00
2022-09-28T18:35:10.244Z,100.00
2022-09-28T18:37:40.182Z,100.00
2022-09-28T18:40:12.920Z,100.00
2022-09-28T18:42:40.796Z,100.00
2022-09-28T18:45:11.206Z,100.00
2022-09-28T18:47:39.034Z,100.00
2022-09-28T18:50:06.437Z,100.00
2022-09-28T18:52:36.551Z,100.00
2022-09-28T18:55:03.564Z,100.00
2022-09-28T18:57:33.514Z,100.00
2022-09-28T19:00:01.806Z,100.00
2022-09-28T19:02:28.641Z,100.00
2022-09-28T19:04:55.273Z,100.00
2022-09-28T19:07:21.821Z,100.00
2022-09-28T19:09:48.475Z,100.00
2022-09-28T19:12:15.074Z,100.00
2022-09-28T19:14:41.583Z,100.00
2022-09-28T19:17:08.374Z,100.00
2022-09-28T19:19:35.818Z,100.00
2022-09-28T19:22:02.419Z,100.00
2022-09-28T19:24:29.050Z,100.00
2022-09-28T19:26:55.792Z,100.00
2022-09-28T19:29:22.763Z,100.00
2022-09-28T19:31:50.435Z,100.00
2022-09-28T19:34:17.792Z,100.00
2022-09-28T19:36:44.763Z,100.00
2022-09-28T19:39:15.006Z,100.00
2022-09-28T19:41:45.633Z,100.00
2022-09-28T19:44:29.723Z,100.00
2022-09-28T19:47:07.117Z,100.00
2022-09-28T19:49:38.600Z,100.00
2022-09-28T19:52:15.847Z,100.00
2022-09-28T19:54:55.865Z,100.00
2022-09-28T19:57:41.591Z,100.00
2022-09-28T20:00:08.937Z,100.00
2022-09-28T20:02:35.472Z,100.00
2022-09-28T20:05:02.311Z,100.00
2022-09-28T20:07:32.788Z,100.00
2022-09-28T20:09:59.633Z,100.00
2022-09-28T20:12:26.470Z,100.00
2022-09-28T20:14:52.988Z,100.00
2022-09-28T20:17:21.693Z,100.00
2022-09-28T20:19:51.665Z,100.00
2022-09-28T20:22:18.698Z,100.00
2022-09-28T20:24:45.324Z,100.00
2022-09-28T20:27:11.876Z,100.00
2022-09-28T20:29:38.362Z,100.00
2022-09-28T20:32:05.073Z,100.00
2022-09-28T20:34:33.403Z,100.00
2022-09-28T20:37:00.170Z,100.00
2022-09-28T20:39:26.641Z,100.00
2022-09-28T20:41:53.583Z,100.00
2022-09-28T20:44:20.247Z,100.00
2022-09-28T20:46:50.282Z,100.00
2022-09-28T20:49:16.805Z,100.00
2022-09-28T20:51:43.596Z,100.00
2022-09-28T20:54:10.072Z,100.00
2022-09-28T20:56:39.344Z,100.00
2022-09-28T20:59:11.490Z,100.00
2022-09-28T21:01:38.368Z,100.00
2022-09-28T21:04:06.997Z,100.00
2022-09-28T21:06:38.319Z,100.00
2022-09-28T21:09:06.803Z,100.00
2022-09-28T21:11:35.651Z,100.00
2022-09-28T21:14:06.049Z,100.00
2022-09-28T21:16:34.728Z,100.00
2022-09-28T21:19:01.348Z,100.00
2022-09-28T21:21:28.152Z,100.00
2022-09-28T21:23:55.880Z,100.00
2022-09-28T21:26:25.155Z,100.00
2022-09-28T21:28:56.793Z,100.00
2022-09-28T21:31:28.734Z,100.00
2022-09-28T21:33:56.336Z,100.00
2022-09-28T21:36:22.968Z,100.00
2022-09-28T21:38:49.466Z,100.00
2022-09-28T21:41:16.642Z,100.00
2022-09-28T21:43:43.156Z,100.00
2022-09-28T21:46:10.365Z,100.00
2022-09-28T21:48:37.123Z,100.00
2022-09-28T21:51:06.272Z,100.00
2022-09-28T21:53:35.321Z,100.00
2022-09-28T21:56:03.496Z,100.00
2022-09-28T21:58:33.610Z,100.00
2022-09-28T22:01:05.163Z,100.00
2022-09-28T22:03:33.747Z,100.00
2022-09-28T22:06:00.278Z,100.00
2022-09-28T22:08:26.976Z,100.00
2022-09-28T22:11:12.873Z,100.00
2022-09-28T22:13:50.797Z,100.00
2022-09-28T22:16:19.279Z,100.00
2022-09-28T22:18:46.293Z,100.00
2022-09-28T22:21:18.987Z,100.00
2022-09-28T22:23:45.711Z,100.00
2022-09-28T22:26:19.444Z,100.00
2022-09-28T22:28:48.126Z,100.00
2022-09-28T22:31:15.966Z,100.00
2022-09-28T22:33:42.669Z,100.00
2022-09-28T22:36:09.638Z,100.00
2022-09-28T22:38:36.689Z,100.00
2022-09-28T22:41:04.064Z,100.00
2022-09-28T22:43:31.124Z,100.00
2022-09-28T22:46:02.088Z,100.00
2022-09-28T22:48:28.923Z,100.00
2022-09-28T22:50:55.450Z,100.00
2022-09-28T22:53:22.028Z,100.00
2022-09-28T22:55:48.508Z,100.00
2022-09-28T22:58:15.050Z,100.00
2022-09-28T23:00:42.450Z,100.00
2022-09-28T23:03:09.396Z,100.00
2022-09-28T23:05:36.381Z,100.00
2022-09-28T23:08:03.270Z,100.00
2022-09-28T23:10:29.824Z,100.00
2022-09-28T23:12:56.884Z,100.00
2022-09-28T23:15:23.427Z,100.00
2022-09-28T23:17:53.895Z,100.00
2022-09-28T23:20:23.891Z,100.00
2022-09-28T23:22:51.097Z,100.00
2022-09-28T23:25:18.553Z,100.00
2022-09-28T23:27:49.868Z,100.00
2022-09-28T23:30:18.596Z,100.00
2022-09-28T23:32:45.679Z,100.00
2022-09-28T23:35:13.662Z,100.00
2022-09-28T23:37:40.416Z,100.00
2022-09-28T23:40:07.929Z,100.00
2022-09-28T23:42:35.523Z,100.00
2022-09-28T23:45:02.034Z,100.00
2022-09-28T23:47:29.288Z,100.00
2022-09-28T23:49:55.810Z,100.00
2022-09-28T23:52:22.582Z,100.00
2022-09-28T23:54:49.080Z,100.00
2022-09-28T23:57:15.817Z,100.00
2022-09-28T23:59:42.331Z,100.00
